Time;durP1;ratioP1;P1;durP2;ratioP2;P2;SDS_P1;SDS_P2;PMS_P1;PMS_P2;Temp;Humidity;BMP_temperature;BMP_pressure;BME280_temperature;BME280_humidity;BME280_pressure;Samples;Min_cycle;Max_cycle;Signal;HPM_P1;HPM_P2
2021/07/15 00:01:52;;;;;;;14.32;6.28;;;;;;;;;;4992141;28;20076;-73
2021/07/15 00:04:18;;;;;;;14.23;7.03;;;;;;;;;;4991062;28;20026;-74
2021/07/15 00:06:44;;;;;;;13.15;7.78;;;;;;;;;;5007113;28;20128;-74
2021/07/15 00:09:12;;;;;;;12.48;6.90;;;;;;;;;;4992602;28;20043;-73
2021/07/15 00:11:39;;;;;;;12.88;6.70;;;;;;;;;;4992212;28;20068;-73
2021/07/15 00:14:05;;;;;;;10.05;6.20;;;;;;;;;;4992492;28;20041;-73
2021/07/15 00:16:31;;;;;;;12.30;6.75;;;;;;;;;;4990673;28;20034;-74
2021/07/15 00:18:57;;;;;;;17.95;7.57;;;;;;;;;;4991203;28;20398;-74
2021/07/15 00:21:26;;;;;;;12.50;7.20;;;;;;;;;;5007606;28;20022;-74
2021/07/15 00:23:52;;;;;;;14.30;7.30;;;;;;;;;;4990764;28;20120;-74
2021/07/15 00:26:21;;;;;;;10.10;7.65;;;;;;;;;;4992345;28;20057;-75
2021/07/15 00:28:47;;;;;;;9.32;6.63;;;;;;;;;;4992009;28;20030;-73
2021/07/15 00:31:13;;;;;;;13.20;6.80;;;;;;;;;;4991919;28;20033;-74
2021/07/15 00:33:38;;;;;;;17.50;6.65;;;;;;;;;;4992109;28;20479;-73
2021/07/15 00:36:04;;;;;;;18.85;6.78;;;;;;;;;;4992777;28;20172;-73
2021/07/15 00:38:31;;;;;;;12.57;6.95;;;;;;;;;;4992638;28;20471;-73
2021/07/15 00:40:57;;;;;;;18.80;7.43;;;;;;;;;;4992184;28;20018;-73
2021/07/15 00:43:23;;;;;;;17.70;7.13;;;;;;;;;;4990624;28;20564;-72
2021/07/15 00:45:49;;;;;;;10.15;6.85;;;;;;;;;;4990310;28;20490;-74
2021/07/15 00:48:15;;;;;;;18.35;8.70;;;;;;;;;;4991879;28;20033;-75
2021/07/15 00:50:41;;;;;;;10.00;6.95;;;;;;;;;;5006527;28;20027;-74
2021/07/15 00:53:08;;;;;;;15.73;6.78;;;;;;;;;;4990408;28;20121;-74
2021/07/15 00:55:37;;;;;;;15.68;7.78;;;;;;;;;;4991505;28;20058;-75
2021/07/15 00:58:04;;;;;;;19.17;6.97;;;;;;;;;;4992184;28;20109;-74
2021/07/15 01:00:30;;;;;;;14.35;9.52;;;;;;;;;;4989039;28;20116;-75
2021/07/15 01:02:57;;;;;;;13.43;7.18;;;;;;;;;;4991639;28;20034;-76
2021/07/15 01:05:33;;;;;;;12.73;7.22;;;;;;;;;;4990240;28;20522;-75
2021/07/15 01:08:00;;;;;;;16.40;7.70;;;;;;;;;;4991849;28;20032;-75
2021/07/15 01:10:29;;;;;;;12.82;7.60;;;;;;;;;;5006610;28;20030;-75
2021/07/15 01:13:12;;;;;;;15.05;7.97;;;;;;;;;;4991232;28;20034;-76
2021/07/15 01:15:46;;;;;;;12.82;8.13;;;;;;;;;;4989895;28;20073;-74
2021/07/15 01:18:26;;;;;;;21.55;9.05;;;;;;;;;;4991224;28;20034;-75
2021/07/15 01:21:10;;;;;;;20.70;10.48;;;;;;;;;;4991029;28;20034;-75
2021/07/15 01:23:48;;;;;;;15.55;9.27;;;;;;;;;;4991055;28;20499;-74
2021/07/15 01:26:43;;;;;;;17.60;8.93;;;;;;;;;;4991077;28;20018;-75
2021/07/15 01:29:36;;;;;;;17.95;9.27;;;;;;;;;;4991562;28;20061;-75
2021/07/15 01:32:06;;;;;;;15.15;9.15;;;;;;;;;;4991274;28;20062;-76
2021/07/15 01:34:33;;;;;;;13.20;8.40;;;;;;;;;;4991167;28;20042;-75
2021/07/15 01:37:01;;;;;;;18.13;8.07;;;;;;;;;;4990700;28;20113;-75
2021/07/15 01:39:33;;;;;;;20.13;10.32;;;;;;;;;;4989552;28;20034;-75
2021/07/15 01:42:05;;;;;;;16.08;7.85;;;;;;;;;;4990889;28;20038;-75
2021/07/15 01:44:31;;;;;;;13.95;9.00;;;;;;;;;;5005772;28;20040;-75
2021/07/15 01:46:57;;;;;;;14.57;8.13;;;;;;;;;;4990813;28;20105;-76
2021/07/15 01:49:25;;;;;;;12.20;8.20;;;;;;;;;;5005929;28;20034;-76
2021/07/15 01:51:53;;;;;;;14.75;8.43;;;;;;;;;;4991013;28;20022;-76
2021/07/15 01:54:19;;;;;;;14.80;8.48;;;;;;;;;;4990590;28;20152;-76
2021/07/15 01:56:46;;;;;;;12.90;7.93;;;;;;;;;;5005164;28;20117;-75
2021/07/15 01:59:15;;;;;;;13.38;8.20;;;;;;;;;;5005687;28;20079;-76
2021/07/15 02:01:42;;;;;;;11.77;8.48;;;;;;;;;;4990325;28;20061;-76
2021/07/15 02:04:08;;;;;;;14.93;8.32;;;;;;;;;;4990462;28;20029;-76
2021/07/15 02:06:36;;;;;;;10.02;7.53;;;;;;;;;;4990414;28;20033;-75
2021/07/15 02:09:06;;;;;;;17.48;7.65;;;;;;;;;;4990349;28;20030;-76
2021/07/15 02:11:33;;;;;;;9.93;7.55;;;;;;;;;;4988100;28;20053;-76
2021/07/15 02:14:09;;;;;;;9.90;7.50;;;;;;;;;;4990147;28;20030;-76
2021/07/15 02:16:39;;;;;;;11.35;7.78;;;;;;;;;;4989123;28;20092;-76
2021/07/15 02:19:05;;;;;;;14.45;7.82;;;;;;;;;;4990534;28;20030;-75
2021/07/15 02:21:32;;;;;;;15.30;7.88;;;;;;;;;;4989204;28;20031;-76
2021/07/15 02:23:59;;;;;;;14.52;8.07;;;;;;;;;;5021775;28;20030;-75
2021/07/15 02:26:26;;;;;;;17.92;8.35;;;;;;;;;;4990326;28;20026;-76
2021/07/15 02:28:52;;;;;;;11.35;8.05;;;;;;;;;;4989160;28;20402;-76
2021/07/15 02:31:23;;;;;;;16.60;9.15;;;;;;;;;;4988812;28;20392;-76
2021/07/15 02:33:54;;;;;;;19.20;9.53;;;;;;;;;;4988955;28;20029;-75
2021/07/15 02:36:22;;;;;;;14.00;8.48;;;;;;;;;;5005505;28;20652;-75
2021/07/15 02:38:52;;;;;;;12.40;7.65;;;;;;;;;;4990122;28;20038;-76
2021/07/15 02:41:17;;;;;;;16.50;8.57;;;;;;;;;;4988512;28;20081;-76
2021/07/15 02:43:43;;;;;;;21.58;9.23;;;;;;;;;;4989829;28;20062;-75
2021/07/15 02:46:09;;;;;;;11.48;8.07;;;;;;;;;;4988493;28;20321;-76
2021/07/15 02:48:34;;;;;;;14.43;8.18;;;;;;;;;;5005153;28;20124;-76
2021/07/15 02:51:00;;;;;;;18.58;12.05;;;;;;;;;;4989933;28;20030;-76
2021/07/15 02:53:25;;;;;;;14.57;7.70;;;;;;;;;;4989964;28;20030;-75
2021/07/15 02:56:13;;;;;;;12.98;8.35;;;;;;;;;;4989738;28;20038;-75
2021/07/15 02:58:48;;;;;;;12.80;8.02;;;;;;;;;;4990022;28;20088;-75
2021/07/15 03:01:19;;;;;;;24.17;8.82;;;;;;;;;;4989883;28;20074;-75
2021/07/15 03:03:54;;;;;;;21.48;8.70;;;;;;;;;;4989758;28;20041;-76
2021/07/15 03:06:26;;;;;;;12.70;8.32;;;;;;;;;;4988598;28;20030;-76
2021/07/15 03:08:56;;;;;;;11.77;8.20;;;;;;;;;;4989913;28;20034;-76
2021/07/15 03:11:31;;;;;;;12.85;8.52;;;;;;;;;;4989691;28;20457;-75
2021/07/15 03:13:59;;;;;;;11.88;8.07;;;;;;;;;;4989513;28;20023;-76
2021/07/15 03:16:25;;;;;;;13.93;8.65;;;;;;;;;;4989872;28;20117;-75
2021/07/15 03:18:53;;;;;;;15.45;8.85;;;;;;;;;;5004638;28;20037;-75
2021/07/15 03:21:24;;;;;;;14.95;9.07;;;;;;;;;;4990061;28;20108;-75
2021/07/15 03:23:53;;;;;;;24.30;8.48;;;;;;;;;;4992729;28;20049;-74
2021/07/15 03:26:19;;;;;;;19.83;8.18;;;;;;;;;;4993804;28;20053;-75
2021/07/15 03:28:47;;;;;;;28.35;9.45;;;;;;;;;;4993698;28;20056;-75
2021/07/15 03:31:14;;;;;;;18.42;8.90;;;;;;;;;;4994625;28;20109;-75
2021/07/15 03:33:41;;;;;;;14.35;9.27;;;;;;;;;;4996566;28;20037;-76
2021/07/15 03:36:09;;;;;;;40.83;10.25;;;;;;;;;;4992706;28;20390;-75
2021/07/15 03:38:37;;;;;;;13.90;9.45;;;;;;;;;;5008447;28;20034;-76
2021/07/15 03:41:07;;;;;;;21.50;8.32;;;;;;;;;;4993076;28;20027;-76
2021/07/15 03:43:39;;;;;;;10.85;7.90;;;;;;;;;;4993528;28;20027;-76
2021/07/15 03:46:06;;;;;;;18.10;8.38;;;;;;;;;;4991603;28;20023;-75
2021/07/15 03:48:34;;;;;;;14.77;8.32;;;;;;;;;;5007786;28;20193;-76
2021/07/15 03:51:05;;;;;;;18.95;8.45;;;;;;;;;;4992475;28;20022;-76
2021/07/15 03:53:31;;;;;;;18.50;11.90;;;;;;;;;;5008199;28;20018;-76
2021/07/15 03:55:58;;;;;;;18.90;8.57;;;;;;;;;;4991224;28;20041;-76
2021/07/15 03:58:25;;;;;;;12.60;7.88;;;;;;;;;;5008180;28;20445;-76
2021/07/15 04:00:57;;;;;;;16.80;8.48;;;;;;;;;;4993057;28;20406;-76
2021/07/15 04:03:24;;;;;;;13.10;7.65;;;;;;;;;;5007964;28;20429;-76
2021/07/15 04:05:51;;;;;;;21.67;15.65;;;;;;;;;;4993536;28;20088;-74
2021/07/15 04:08:19;;;;;;;12.98;7.75;;;;;;;;;;4993056;28;20601;-74
2021/07/15 04:10:48;;;;;;;13.88;7.05;;;;;;;;;;4992774;28;20030;-76
2021/07/15 04:13:14;;;;;;;27.10;9.45;;;;;;;;;;4992732;28;20033;-75
2021/07/15 04:16:09;;;;;;;12.82;8.40;;;;;;;;;;4991157;28;20383;-75
2021/07/15 04:18:38;;;;;;;12.02;7.47;;;;;;;;;;4992921;28;20026;-75
2021/07/15 04:21:04;;;;;;;13.80;8.23;;;;;;;;;;4991089;28;20084;-75
2021/07/15 04:23:31;;;;;;;12.65;7.38;;;;;;;;;;4992702;28;20540;-75
2021/07/15 04:25:57;;;;;;;12.77;7.78;;;;;;;;;;4992570;28;20072;-75
2021/07/15 04:28:24;;;;;;;16.17;8.90;;;;;;;;;;4992431;28;20484;-75
2021/07/15 04:31:14;;;;;;;23.60;7.65;;;;;;;;;;5007168;28;20038;-75
2021/07/15 04:33:41;;;;;;;11.23;7.28;;;;;;;;;;4991943;28;20030;-75
2021/07/15 04:36:08;;;;;;;16.45;7.47;;;;;;;;;;4992006;28;20035;-76
2021/07/15 04:38:34;;;;;;;11.27;6.63;;;;;;;;;;5007148;28;20161;-75
2021/07/15 04:41:00;;;;;;;10.40;7.38;;;;;;;;;;4990594;28;20069;-75
2021/07/15 04:43:28;;;;;;;10.82;6.65;;;;;;;;;;5007188;28;20131;-76
2021/07/15 04:45:55;;;;;;;19.63;7.75;;;;;;;;;;4990639;28;20026;-76
2021/07/15 04:48:21;;;;;;;18.20;7.15;;;;;;;;;;5006991;28;20113;-75
2021/07/15 04:50:49;;;;;;;15.57;7.68;;;;;;;;;;5007070;28;20121;-74
2021/07/15 04:53:16;;;;;;;25.83;20.10;;;;;;;;;;4992284;28;20080;-75
2021/07/15 04:55:43;;;;;;;23.83;8.57;;;;;;;;;;4990802;28;20022;-76
2021/07/15 04:58:09;;;;;;;14.02;6.25;;;;;;;;;;5006813;28;20613;-75
2021/07/15 05:00:36;;;;;;;14.65;6.78;;;;;;;;;;4991769;28;20125;-75
2021/07/15 05:03:16;;;;;;;12.40;6.90;;;;;;;;;;4990046;28;20034;-76
2021/07/15 05:05:42;;;;;;;12.27;6.95;;;;;;;;;;4991754;28;20018;-76
2021/07/15 05:08:07;;;;;;;15.85;6.38;;;;;;;;;;4991469;28;20415;-76
2021/07/15 05:10:33;;;;;;;12.07;6.40;;;;;;;;;;4991865;28;20027;-75
2021/07/15 05:13:00;;;;;;;17.15;6.35;;;;;;;;;;4990089;28;20401;-76
2021/07/15 05:15:26;;;;;;;14.18;8.70;;;;;;;;;;4990207;28;20049;-76
2021/07/15 05:17:51;;;;;;;13.55;8.98;;;;;;;;;;4990175;28;20467;-77
2021/07/15 05:20:17;;;;;;;14.88;7.18;;;;;;;;;;5006452;28;20108;-76
2021/07/15 05:22:42;;;;;;;19.58;6.75;;;;;;;;;;4991580;28;20037;-75
2021/07/15 05:25:08;;;;;;;8.85;6.10;;;;;;;;;;4991228;28;20046;-76
2021/07/15 05:27:34;;;;;;;11.38;7.80;;;;;;;;;;5006280;28;20018;-76
2021/07/15 05:29:59;;;;;;;14.32;6.28;;;;;;;;;;4991243;28;20029;-76
2021/07/15 05:32:25;;;;;;;11.43;6.32;;;;;;;;;;4990964;28;20097;-76
2021/07/15 05:34:51;;;;;;;14.60;8.60;;;;;;;;;;4989327;28;20161;-75
2021/07/15 05:37:17;;;;;;;14.23;7.13;;;;;;;;;;5006123;28;20387;-75
2021/07/15 05:39:46;;;;;;;16.15;7.47;;;;;;;;;;4990669;28;20475;-76
2021/07/15 05:42:12;;;;;;;13.90;6.70;;;;;;;;;;5005784;28;20394;-76
2021/07/15 05:44:38;;;;;;;15.23;6.25;;;;;;;;;;4990486;28;20032;-77
2021/07/15 05:47:04;;;;;;;16.25;7.10;;;;;;;;;;4988974;28;20117;-76
2021/07/15 05:49:30;;;;;;;8.02;5.97;;;;;;;;;;5005834;28;20125;-77
2021/07/15 05:51:55;;;;;;;10.18;5.78;;;;;;;;;;4989064;28;20026;-76
2021/07/15 05:54:21;;;;;;;11.00;6.25;;;;;;;;;;5005682;28;20065;-75
2021/07/15 05:56:46;;;;;;;16.02;7.30;;;;;;;;;;5005789;28;20058;-76
2021/07/15 05:59:12;;;;;;;15.80;8.50;;;;;;;;;;4990124;28;20315;-75
2021/07/15 06:01:37;;;;;;;15.95;6.85;;;;;;;;;;4989047;28;20400;-76
2021/07/15 06:04:03;;;;;;;14.90;7.18;;;;;;;;;;5005165;28;20471;-76
2021/07/15 06:06:28;;;;;;;17.30;7.60;;;;;;;;;;4990305;28;20041;-75
2021/07/15 06:08:54;;;;;;;12.23;6.10;;;;;;;;;;4990032;28;20066;-76
2021/07/15 06:11:20;;;;;;;10.50;5.80;;;;;;;;;;4990639;28;20110;-77
2021/07/15 06:13:46;;;;;;;7.15;5.15;;;;;;;;;;4990543;28;20458;-76
2021/07/15 06:16:11;;;;;;;21.60;10.05;;;;;;;;;;4990336;28;20053;-77
2021/07/15 06:18:37;;;;;;;9.52;4.75;;;;;;;;;;4988889;28;20032;-76
2021/07/15 06:21:04;;;;;;;17.15;4.97;;;;;;;;;;4989923;28;20125;-76
2021/07/15 06:23:32;;;;;;;21.02;5.18;;;;;;;;;;4989321;28;20037;-77
2021/07/15 06:25:58;;;;;;;7.63;4.78;;;;;;;;;;5008646;28;20060;-76
2021/07/15 06:28:23;;;;;;;6.68;4.15;;;;;;;;;;5008326;28;20088;-75
2021/07/15 06:30:49;;;;;;;6.22;4.28;;;;;;;;;;5012266;28;20109;-76
2021/07/15 06:33:15;;;;;;;11.20;4.80;;;;;;;;;;4989601;28;20026;-76
2021/07/15 06:35:41;;;;;;;5.85;4.03;;;;;;;;;;4990287;28;20160;-76
2021/07/15 06:38:07;;;;;;;11.02;4.38;;;;;;;;;;4988054;28;20045;-74
2021/07/15 06:40:33;;;;;;;4.97;4.25;;;;;;;;;;4988962;28;20490;-76
2021/07/15 06:42:59;;;;;;;16.45;6.25;;;;;;;;;;5004778;28;20053;-76
2021/07/15 06:45:24;;;;;;;5.65;4.63;;;;;;;;;;4989508;28;20509;-76
2021/07/15 06:47:50;;;;;;;8.73;4.57;;;;;;;;;;4988875;28;20406;-76
2021/07/15 06:50:17;;;;;;;6.72;4.05;;;;;;;;;;5004375;28;20018;-76
2021/07/15 06:52:44;;;;;;;12.25;5.30;;;;;;;;;;4988642;28;20117;-76
2021/07/15 06:55:10;;;;;;;6.10;4.10;;;;;;;;;;4989582;28;20026;-74
2021/07/15 06:57:36;;;;;;;7.07;4.60;;;;;;;;;;4979807;28;20026;-75
2021/07/15 07:00:07;;;;;;;7.18;3.85;;;;;;;;;;4986789;28;20041;-77
2021/07/15 07:02:36;;;;;;;10.52;5.45;;;;;;;;;;4987944;28;20419;-75
2021/07/15 07:05:02;;;;;;;7.45;4.30;;;;;;;;;;4988152;28;20144;-74
2021/07/15 07:07:27;;;;;;;10.93;4.30;;;;;;;;;;4990118;28;20108;-78
2021/07/15 07:09:53;;;;;;;7.93;4.95;;;;;;;;;;5001751;28;20084;-74
2021/07/15 07:12:19;;;;;;;21.33;8.10;;;;;;;;;;4988835;28;20042;-76
2021/07/15 07:14:46;;;;;;;8.95;3.90;;;;;;;;;;5006786;28;20088;-75
2021/07/15 07:17:11;;;;;;;8.27;4.07;;;;;;;;;;4988522;28;20172;-74
2021/07/15 07:19:37;;;;;;;11.10;5.13;;;;;;;;;;4999505;28;20497;-75
2021/07/15 07:22:03;;;;;;;6.72;4.57;;;;;;;;;;4979645;28;20089;-74
2021/07/15 07:24:28;;;;;;;40.30;6.00;;;;;;;;;;4974033;28;20048;-75
2021/07/15 07:26:54;;;;;;;8.95;4.30;;;;;;;;;;4985731;28;20033;-75
2021/07/15 07:29:20;;;;;;;7.45;3.88;;;;;;;;;;4987547;28;20379;-75
2021/07/15 07:31:45;;;;;;;8.40;3.60;;;;;;;;;;4993050;28;20057;-74
2021/07/15 07:34:11;;;;;;;11.15;3.90;;;;;;;;;;4984489;28;20030;-74
2021/07/15 07:36:37;;;;;;;9.02;4.78;;;;;;;;;;4983065;28;20034;-75
2021/07/15 07:39:03;;;;;;;6.70;3.80;;;;;;;;;;4987176;28;20030;-75
2021/07/15 07:41:29;;;;;;;12.52;4.75;;;;;;;;;;4984390;28;20045;-76
2021/07/15 07:43:54;;;;;;;6.38;3.78;;;;;;;;;;5012819;28;20034;-75
2021/07/15 07:46:20;;;;;;;9.70;3.78;;;;;;;;;;5022235;28;20121;-75
2021/07/15 07:48:45;;;;;;;10.38;4.50;;;;;;;;;;5019378;28;20065;-76
2021/07/15 07:51:13;;;;;;;10.20;4.10;;;;;;;;;;5002543;28;20030;-75
2021/07/15 07:53:38;;;;;;;10.43;4.32;;;;;;;;;;4992258;28;20426;-76
2021/07/15 07:56:04;;;;;;;28.42;4.63;;;;;;;;;;4987921;28;20073;-76
2021/07/15 07:58:29;;;;;;;9.73;6.03;;;;;;;;;;5003894;28;20041;-76
2021/07/15 08:00:55;;;;;;;6.25;3.97;;;;;;;;;;5006308;28;20482;-74
2021/07/15 08:03:20;;;;;;;6.32;3.65;;;;;;;;;;4986368;28;20038;-77
2021/07/15 08:05:47;;;;;;;7.57;4.30;;;;;;;;;;5018114;28;20434;-77
2021/07/15 08:08:15;;;;;;;5.70;3.55;;;;;;;;;;4989078;28;20550;-77
2021/07/15 08:10:41;;;;;;;6.03;4.18;;;;;;;;;;4989834;28;20383;-75
2021/07/15 08:13:06;;;;;;;8.35;4.40;;;;;;;;;;4992441;28;20040;-76
2021/07/15 08:15:32;;;;;;;10.02;4.60;;;;;;;;;;4991630;28;20030;-74
2021/07/15 08:17:58;;;;;;;6.10;4.00;;;;;;;;;;4992354;28;20041;-76
2021/07/15 08:20:23;;;;;;;6.78;4.00;;;;;;;;;;5024365;28;20030;-76
2021/07/15 08:22:49;;;;;;;6.45;3.88;;;;;;;;;;4991139;28;20829;-76
2021/07/15 08:25:19;;;;;;;8.15;3.58;;;;;;;;;;5014999;28;20022;-75
2021/07/15 08:27:45;;;;;;;4.13;3.30;;;;;;;;;;4991049;28;20022;-76
2021/07/15 08:30:12;;;;;;;6.38;3.60;;;;;;;;;;5005033;28;20034;-76
2021/07/15 08:32:39;;;;;;;4.97;3.90;;;;;;;;;;4991050;28;20113;-76
2021/07/15 08:35:05;;;;;;;6.95;4.35;;;;;;;;;;4990773;28;20117;-76
2021/07/15 08:37:31;;;;;;;6.05;3.80;;;;;;;;;;4987449;28;20030;-76
2021/07/15 08:39:56;;;;;;;6.72;4.20;;;;;;;;;;4988725;28;20025;-76
2021/07/15 08:42:22;;;;;;;9.63;4.22;;;;;;;;;;4989019;28;20140;-74
2021/07/15 08:44:48;;;;;;;5.75;3.90;;;;;;;;;;4988550;28;20109;-76
2021/07/15 08:47:15;;;;;;;4.85;3.80;;;;;;;;;;5019428;28;20041;-76
2021/07/15 08:49:41;;;;;;;6.78;4.20;;;;;;;;;;5006327;28;20022;-76
2021/07/15 08:52:06;;;;;;;11.80;4.43;;;;;;;;;;4990406;28;20030;-75
2021/07/15 08:54:47;;;;;;;8.82;6.13;;;;;;;;;;5020831;28;20032;-76
2021/07/15 08:57:12;;;;;;;5.10;3.63;;;;;;;;;;4985854;28;20777;-75
2021/07/15 08:59:38;;;;;;;8.02;5.03;;;;;;;;;;4988777;28;20117;-75
2021/07/15 09:02:04;;;;;;;7.68;4.68;;;;;;;;;;4989190;28;20038;-77
2021/07/15 09:04:29;;;;;;;4.82;3.72;;;;;;;;;;4986164;28;20042;-76
2021/07/15 09:06:56;;;;;;;7.75;4.95;;;;;;;;;;4987708;28;20018;-76
2021/07/15 09:09:22;;;;;;;12.65;5.82;;;;;;;;;;4990259;28;20061;-76
2021/07/15 09:11:48;;;;;;;7.28;4.40;;;;;;;;;;4993479;28;20027;-72
2021/07/15 09:14:15;;;;;;;10.80;4.88;;;;;;;;;;4989803;28;20068;-75
2021/07/15 09:16:52;;;;;;;6.47;4.22;;;;;;;;;;4988016;28;20086;-75
2021/07/15 09:19:21;;;;;;;10.10;5.88;;;;;;;;;;5007943;28;20050;-75
2021/07/15 09:21:47;;;;;;;7.88;5.07;;;;;;;;;;4993416;28;20050;-75
2021/07/15 09:24:40;;;;;;;13.77;5.30;;;;;;;;;;5003646;28;20061;-74
2021/07/15 09:27:24;;;;;;;10.80;5.00;;;;;;;;;;4989409;28;20059;-75
2021/07/15 09:30:11;;;;;;;7.45;4.93;;;;;;;;;;4989737;28;20034;-75
2021/07/15 09:32:59;;;;;;;10.23;5.53;;;;;;;;;;5000107;28;20026;-75
2021/07/15 09:35:37;;;;;;;9.43;5.03;;;;;;;;;;4985673;28;20045;-76
2021/07/15 09:38:17;;;;;;;10.07;5.47;;;;;;;;;;4978504;28;20034;-76
2021/07/15 09:40:44;;;;;;;11.65;5.50;;;;;;;;;;4981049;28;20034;-75
2021/07/15 09:43:15;;;;;;;13.82;6.13;;;;;;;;;;4983540;28;20116;-76
2021/07/15 09:45:41;;;;;;;;;;;;;;;;;;5004800;28;20026;-77
2021/07/15 09:48:15;;;;;;;11.13;5.90;;;;;;;;;;5013537;28;19913;-76
2021/07/15 09:50:41;;;;;;;5.80;4.10;;;;;;;;;;4986225;28;20486;-77
2021/07/15 09:53:21;;;;;;;5.90;4.93;;;;;;;;;;4985666;28;20094;-75
2021/07/15 09:55:48;;;;;;;8.63;5.15;;;;;;;;;;4990466;28;20479;-77
2021/07/15 09:58:14;;;;;;;10.68;5.97;;;;;;;;;;4989418;28;20379;-76
2021/07/15 10:00:40;;;;;;;11.18;6.28;;;;;;;;;;5021011;28;20061;-76
2021/07/15 10:03:07;;;;;;;10.48;6.30;;;;;;;;;;5017181;28;20034;-75
2021/07/15 10:05:34;;;;;;;9.18;5.80;;;;;;;;;;4986595;28;20438;-75
2021/07/15 10:08:10;;;;;;;17.92;6.65;;;;;;;;;;4986787;28;20023;-76
2021/07/15 10:10:37;;;;;;;8.32;6.18;;;;;;;;;;4986943;28;20505;-75
2021/07/15 10:13:20;;;;;;;19.08;6.72;;;;;;;;;;4989763;28;20029;-75
2021/07/15 10:15:47;;;;;;;12.95;7.88;;;;;;;;;;4987060;28;20030;-77
2021/07/15 10:18:13;;;;;;;9.23;5.50;;;;;;;;;;4973720;28;20085;-75
2021/07/15 10:20:53;;;;;;;13.25;7.45;;;;;;;;;;4988651;28;20022;-75
2021/07/15 10:23:36;;;;;;;11.32;5.63;;;;;;;;;;4984995;28;20045;-75
2021/07/15 10:26:04;;;;;;;7.60;4.60;;;;;;;;;;5015851;28;20014;-75
2021/07/15 10:28:30;;;;;;;7.13;4.63;;;;;;;;;;4984738;28;20416;-75
2021/07/15 10:31:04;;;;;;;10.00;6.75;;;;;;;;;;4987580;28;20106;-76
2021/07/15 10:33:30;;;;;;;10.30;5.78;;;;;;;;;;4986941;28;20038;-74
2021/07/15 10:35:58;;;;;;;9.30;5.85;;;;;;;;;;4988470;28;20129;-76
2021/07/15 10:38:28;;;;;;;12.07;5.47;;;;;;;;;;4986868;28;20022;-75
2021/07/15 10:40:54;;;;;;;7.03;4.95;;;;;;;;;;4986323;28;20026;-73
2021/07/15 10:43:20;;;;;;;8.85;5.13;;;;;;;;;;4985814;28;20104;-75
2021/07/15 10:45:46;;;;;;;9.35;5.50;;;;;;;;;;4998616;28;20045;-74
2021/07/15 10:48:13;;;;;;;7.13;5.55;;;;;;;;;;4988257;28;20117;-76
2021/07/15 10:50:40;;;;;;;11.27;6.90;;;;;;;;;;4988403;28;20581;-75
2021/07/15 10:53:07;;;;;;;11.07;5.00;;;;;;;;;;4986803;28;20019;-76
2021/07/15 10:55:33;;;;;;;14.93;8.05;;;;;;;;;;4988628;28;20026;-74
2021/07/15 10:57:58;;;;;;;6.63;4.90;;;;;;;;;;4985799;28;20038;-74
2021/07/15 11:00:28;;;;;;;9.52;4.68;;;;;;;;;;4987896;28;20081;-75
2021/07/15 11:03:23;;;;;;;8.50;4.97;;;;;;;;;;4980463;28;20022;-74
2021/07/15 11:05:58;;;;;;;9.27;5.55;;;;;;;;;;4979188;28;20060;-75
2021/07/15 11:08:48;;;;;;;12.15;5.35;;;;;;;;;;5017163;28;20049;-74
2021/07/15 11:11:15;;;;;;;8.47;4.83;;;;;;;;;;5002283;28;20027;-74
2021/07/15 11:13:45;;;;;;;9.60;5.78;;;;;;;;;;4997154;28;20283;-75
2021/07/15 11:16:11;;;;;;;13.38;5.70;;;;;;;;;;4987307;28;20137;-75
2021/07/15 11:21:31;;;;;;;7.97;4.93;;;;;;;;;;4985232;28;20085;-75
2021/07/15 11:24:06;;;;;;;8.02;4.85;;;;;;;;;;4985262;28;20113;-73
2021/07/15 11:26:41;;;;;;;10.02;4.75;;;;;;;;;;5018554;28;20026;-75
2021/07/15 11:29:07;;;;;;;12.25;5.75;;;;;;;;;;4986472;28;20041;-74
2021/07/15 11:31:42;;;;;;;8.85;5.03;;;;;;;;;;4985176;28;20165;-75
2021/07/15 11:34:08;;;;;;;8.25;4.57;;;;;;;;;;4983821;28;20038;-74
2021/07/15 11:36:35;;;;;;;13.57;5.18;;;;;;;;;;4987748;28;20162;-75
2021/07/15 11:39:06;;;;;;;13.98;5.13;;;;;;;;;;4987410;28;20076;-76
2021/07/15 11:41:51;;;;;;;10.77;5.47;;;;;;;;;;5000307;28;20106;-76
2021/07/15 11:44:18;;;;;;;6.97;4.40;;;;;;;;;;4988629;28;20737;-75
2021/07/15 11:46:46;;;;;;;7.72;4.18;;;;;;;;;;4992524;28;20050;-75
2021/07/15 11:49:25;;;;;;;5.85;4.15;;;;;;;;;;5006662;28;20545;-75
2021/07/15 11:51:56;;;;;;;7.63;4.10;;;;;;;;;;5021757;28;20165;-75
2021/07/15 11:54:27;;;;;;;8.93;4.30;;;;;;;;;;4986291;28;20165;-74
2021/07/15 11:57:00;;;;;;;5.20;3.72;;;;;;;;;;4989020;28;20487;-72
2021/07/15 11:59:46;;;;;;;9.07;4.32;;;;;;;;;;5019700;28;20093;-75
2021/07/15 12:02:40;;;;;;;10.25;6.65;;;;;;;;;;4991999;28;20047;-76
2021/07/15 12:05:13;;;;;;;11.45;4.43;;;;;;;;;;4991569;28;20030;-75
2021/07/15 12:07:49;;;;;;;9.43;4.68;;;;;;;;;;4988448;28;20153;-75
2021/07/15 12:10:20;;;;;;;7.63;4.60;;;;;;;;;;5021567;28;20026;-74
2021/07/15 12:12:46;;;;;;;18.42;5.38;;;;;;;;;;4995528;28;20124;-76
2021/07/15 12:15:18;;;;;;;8.65;4.35;;;;;;;;;;4990273;28;20177;-76
2021/07/15 12:17:45;;;;;;;20.77;5.82;;;;;;;;;;4991965;28;20064;-75
2021/07/15 12:20:11;;;;;;;5.93;4.40;;;;;;;;;;4992314;28;20026;-75
2021/07/15 12:22:47;;;;;;;6.05;4.05;;;;;;;;;;4995739;28;20038;-75
2021/07/15 12:25:19;;;;;;;6.47;4.13;;;;;;;;;;4993137;28;20104;-75
2021/07/15 12:27:47;;;;;;;6.68;4.13;;;;;;;;;;4991602;28;20105;-75
2021/07/15 12:30:14;;;;;;;7.22;4.72;;;;;;;;;;4991903;28;20026;-76
2021/07/15 12:32:54;;;;;;;7.75;4.05;;;;;;;;;;4989193;28;20065;-76
2021/07/15 12:35:20;;;;;;;5.93;3.50;;;;;;;;;;4974225;28;20084;-75
2021/07/15 12:37:45;;;;;;;6.70;3.78;;;;;;;;;;4990051;28;20422;-75
2021/07/15 12:40:11;;;;;;;8.32;4.50;;;;;;;;;;4989338;28;20391;-76
2021/07/15 12:42:37;;;;;;;5.03;3.50;;;;;;;;;;4982902;28;20326;-76
2021/07/15 12:45:20;;;;;;;7.72;3.22;;;;;;;;;;4990458;28;20467;-76
2021/07/15 12:48:04;;;;;;;4.70;3.15;;;;;;;;;;4989294;28;20157;-75
2021/07/15 12:50:30;;;;;;;7.63;4.47;;;;;;;;;;4991205;28;20061;-75
2021/07/15 12:53:19;;;;;;;8.63;3.83;;;;;;;;;;4990260;28;20086;-75
2021/07/15 12:55:45;;;;;;;4.43;2.95;;;;;;;;;;5021742;28;20034;-74
2021/07/15 12:58:12;;;;;;;7.97;3.42;;;;;;;;;;4988498;28;20038;-75
2021/07/15 13:00:39;;;;;;;5.03;3.10;;;;;;;;;;4990730;28;20487;-75
2021/07/15 13:03:06;;;;;;;4.75;2.80;;;;;;;;;;4990166;28;20129;-75
2021/07/15 13:05:32;;;;;;;5.50;2.72;;;;;;;;;;5021796;28;20084;-75
2021/07/15 13:07:58;;;;;;;8.45;2.40;;;;;;;;;;4990679;28;20026;-75
2021/07/15 13:15:55;;;;;;;4.55;2.88;;;;;;;;;;5009984;28;20056;-76
2021/07/15 13:18:29;;;;;;;4.32;2.80;;;;;;;;;;5009523;28;20033;-76
2021/07/15 13:20:55;;;;;;;3.75;2.70;;;;;;;;;;5009940;28;20029;-76
2021/07/15 13:23:23;;;;;;;3.70;2.90;;;;;;;;;;5004404;28;20088;-75
2021/07/15 13:25:52;;;;;;;3.80;2.50;;;;;;;;;;4986234;28;20030;-76
2021/07/15 13:28:21;;;;;;;4.47;2.92;;;;;;;;;;4986096;28;20034;-75
2021/07/15 13:30:50;;;;;;;6.18;2.53;;;;;;;;;;4967557;28;20518;-74
2021/07/15 13:33:22;;;;;;;3.90;2.58;;;;;;;;;;4973503;28;20029;-75
2021/07/15 13:35:52;;;;;;;5.18;2.65;;;;;;;;;;4980861;28;20065;-75
2021/07/15 13:38:20;;;;;;;2.95;2.45;;;;;;;;;;4985874;28;20399;-76
2021/07/15 13:40:47;;;;;;;11.20;3.35;;;;;;;;;;4983746;28;20541;-74
2021/07/15 13:43:24;;;;;;;2.85;2.50;;;;;;;;;;4984461;28;20034;-75
2021/07/15 13:45:53;;;;;;;3.72;2.67;;;;;;;;;;4970127;28;20089;-76
2021/07/15 13:48:24;;;;;;;6.15;3.00;;;;;;;;;;4984863;28;20030;-75
2021/07/15 13:51:04;;;;;;;3.85;2.50;;;;;;;;;;4985408;28;20058;-75
2021/07/15 13:53:31;;;;;;;3.35;2.63;;;;;;;;;;4986885;28;20027;-76
2021/07/15 13:56:00;;;;;;;7.28;2.97;;;;;;;;;;4986056;28;20069;-75
2021/07/15 13:58:27;;;;;;;11.48;3.63;;;;;;;;;;4985084;28;20045;-74
2021/07/15 14:00:59;;;;;;;4.30;3.50;;;;;;;;;;4986184;28;20061;-75
2021/07/15 14:03:27;;;;;;;3.13;2.83;;;;;;;;;;5016298;28;20030;-75
2021/07/15 14:05:55;;;;;;;8.38;3.10;;;;;;;;;;4985341;28;20018;-76
2021/07/15 14:08:23;;;;;;;4.93;2.92;;;;;;;;;;4984464;28;20169;-75
2021/07/15 14:10:51;;;;;;;7.07;3.33;;;;;;;;;;4987297;28;20451;-75
2021/07/15 14:13:17;;;;;;;6.05;2.72;;;;;;;;;;4982760;28;20477;-75
2021/07/15 14:15:46;;;;;;;12.98;3.13;;;;;;;;;;4985495;28;20077;-75
2021/07/15 14:18:15;;;;;;;5.57;3.13;;;;;;;;;;4988882;28;20033;-75
2021/07/15 14:20:50;;;;;;;6.03;3.28;;;;;;;;;;4987608;28;20049;-75
2021/07/15 14:23:20;;;;;;;3.80;2.88;;;;;;;;;;4985405;28;20408;-75
2021/07/15 14:25:48;;;;;;;6.53;3.83;;;;;;;;;;4987890;28;20030;-75
2021/07/15 14:28:16;;;;;;;9.55;3.58;;;;;;;;;;4978510;28;20072;-75
2021/07/15 14:30:46;;;;;;;4.80;3.03;;;;;;;;;;4983211;28;20038;-74
2021/07/15 14:33:13;;;;;;;11.27;3.50;;;;;;;;;;4983089;28;20169;-76
2021/07/15 14:35:41;;;;;;;7.55;4.20;;;;;;;;;;4985798;28;20360;-75
2021/07/15 14:38:13;;;;;;;8.60;4.03;;;;;;;;;;4986968;28;20030;-76
2021/07/15 14:40:39;;;;;;;5.43;3.60;;;;;;;;;;4987563;28;20030;-75
2021/07/15 14:43:09;;;;;;;4.28;3.42;;;;;;;;;;4989085;28;20022;-75
2021/07/15 14:45:38;;;;;;;7.57;3.70;;;;;;;;;;4984771;28;20018;-74
2021/07/15 14:48:06;;;;;;;4.40;3.40;;;;;;;;;;5000272;28;20391;-75
2021/07/15 14:50:33;;;;;;;5.00;3.08;;;;;;;;;;4984826;28;20450;-75
2021/07/15 14:52:59;;;;;;;9.07;3.90;;;;;;;;;;4986321;28;20030;-76
2021/07/15 14:55:27;;;;;;;7.45;3.65;;;;;;;;;;5006149;28;20021;-75